Time;durP1;ratioP1;P1;durP2;ratioP2;P2;SDS_P1;SDS_P2;PMS_P1;PMS_P2;Temp;Humidity;BMP_temperature;BMP_pressure;BME280_temperature;BME280_humidity;BME280_pressure;Samples;Min_cycle;Max_cycle;Signal;HPM_P1;HPM_P2
2022/01/27 00:01:21;;;;;;;;;;;3.20;99.90;;;;;;5112154;28;19912;-68
2022/01/27 00:04:01;;;;;;;;;;;3.20;99.90;;;;;;5126783;27;20389;-69
2022/01/27 00:06:27;;;;;;;;;;;3.30;99.90;;;;;;5133310;27;19954;-69
2022/01/27 00:08:58;;;;;;;;;;;3.40;99.90;;;;;;5127685;27;19923;-64
2022/01/27 00:11:24;;;;;;;;;;;3.50;99.90;;;;;;5127825;27;19919;-68
2022/01/27 00:13:59;;;;;;;;;;;3.40;99.90;;;;;;5133061;27;20496;-66
2022/01/27 00:16:28;;;;;;;;;;;3.40;99.90;;;;;;5128362;27;19915;-69
2022/01/27 00:18:54;;;;;;;;;;;3.30;99.90;;;;;;5132632;27;20019;-70
2022/01/27 00:21:21;;;;;;;;;;;3.30;99.90;;;;;;5130739;27;20419;-70
2022/01/27 00:23:47;;;;;;;;;;;3.20;99.90;;;;;;5132351;27;19908;-69
2022/01/27 00:26:14;;;;;;;;;;;3.20;99.90;;;;;;5127624;27;19918;-70
2022/01/27 00:28:40;;;;;;;;;;;3.20;99.90;;;;;;5131957;27;19918;-68
2022/01/27 00:31:06;;;;;;;;;;;3.20;99.90;;;;;;5133100;27;19934;-68
2022/01/27 00:33:31;;;;;;;;;;;3.10;99.90;;;;;;5129857;27;19955;-67
2022/01/27 00:35:57;;;;;;;;;;;3.10;99.90;;;;;;5131512;27;19915;-67
2022/01/27 00:38:23;;;;;;;;;;;3.00;99.90;;;;;;5123743;27;20038;-69
2022/01/27 00:40:48;;;;;;;;;;;3.00;99.90;;;;;;5123335;27;20014;-68
2022/01/27 00:43:14;;;;;;;;;;;3.00;99.90;;;;;;5129547;28;19907;-68
2022/01/27 00:45:40;;;;;;;;;;;3.10;99.90;;;;;;5124704;28;19947;-67
2022/01/27 00:48:05;;;;;;;;;;;3.20;99.90;;;;;;5128132;28;19987;-66
2022/01/27 00:50:33;;;;;;;;;;;3.20;99.90;;;;;;5128465;28;20370;-68
2022/01/27 00:53:01;;;;;;;;;;;3.10;99.90;;;;;;5126138;28;19919;-68
2022/01/27 00:55:29;;;;;;;;;;;3.00;99.90;;;;;;5122631;28;19912;-67
2022/01/27 01:00:35;;;;;;;;;;;2.90;99.90;;;;;;5131257;28;19908;-69
2022/01/27 01:08:35;;;;;;;;;;;2.90;99.90;;;;;;5132302;27;20350;-69
2022/01/27 01:16:27;;;;;;;;;;;3.10;99.90;;;;;;5135477;27;20026;-69
2022/01/27 01:19:04;;;;;;;;;;;3.00;99.90;;;;;;5134264;27;20368;-69
2022/01/27 01:34:43;;;;;;;;;;;3.20;99.90;;;;;;5133702;27;20293;-69
2022/01/27 01:37:09;;;;;;;;;;;3.10;99.90;;;;;;5126885;27;20334;-67
2022/01/27 01:39:35;;;;;;;;;;;3.10;99.90;;;;;;5134305;27;20250;-67
2022/01/27 01:42:03;;;;;;;;;;;3.20;99.90;;;;;;5132522;27;20318;-66
2022/01/27 01:44:28;;;;;;;;;;;3.10;99.90;;;;;;5134670;27;19912;-69
2022/01/27 01:46:54;;;;;;;;;;;3.10;99.90;;;;;;5133307;27;20573;-69
2022/01/27 01:49:22;;;;;;;;;;;3.10;99.90;;;;;;5134116;27;19908;-67
2022/01/27 01:51:48;;;;;;;;;;;3.10;99.90;;;;;;5127942;27;19950;-68
2022/01/27 01:54:14;;;;;;;;;;;3.10;99.90;;;;;;5129390;27;19947;-68
2022/01/27 01:56:40;;;;;;;;;;;3.20;99.90;;;;;;5132969;27;19911;-67
2022/01/27 01:59:07;;;;;;;;;;;3.20;99.90;;;;;;5132808;27;19911;-67
2022/01/27 02:01:34;;;;;;;;;;;3.20;99.90;;;;;;5134750;27;19962;-68
2022/01/27 02:04:04;;;;;;;;;;;3.30;99.90;;;;;;5133613;27;19918;-67
2022/01/27 02:06:46;;;;;;;;;;;3.30;99.90;;;;;;5124979;27;19922;-66
2022/01/27 02:19:51;;;;;;;;;;;3.00;99.90;;;;;;5134049;27;19936;-69
2022/01/27 02:22:17;;;;;;;;;;;3.00;99.90;;;;;;5132533;27;19908;-66
2022/01/27 02:24:43;;;;;;;;;;;3.00;99.90;;;;;;5123042;27;19911;-68
2022/01/27 02:27:08;;;;;;;;;;;3.00;99.90;;;;;;5133871;27;20014;-67
2022/01/27 02:29:34;;;;;;;;;;;3.10;99.90;;;;;;5132695;27;19911;-69
2022/01/27 02:32:00;;;;;;;;;;;3.20;99.90;;;;;;5132072;27;19911;-69
2022/01/27 02:34:26;;;;;;;;;;;3.20;99.90;;;;;;5127921;27;20002;-68
2022/01/27 02:36:52;;;;;;;;;;;3.10;99.90;;;;;;5124741;27;20042;-67
2022/01/27 02:39:18;;;;;;;;;;;3.10;99.90;;;;;;5131886;27;20310;-68
2022/01/27 02:41:50;;;;;;;;;;;3.10;99.90;;;;;;5131424;27;19907;-67
2022/01/27 02:44:44;;;;;;;;;;;3.00;99.90;;;;;;5133599;27;19990;-67
2022/01/27 02:47:10;;;;;;;;;;;3.00;99.90;;;;;;5108173;27;19912;-67
2022/01/27 02:49:36;;;;;;;;;;;3.00;99.90;;;;;;5133040;27;20494;-68
2022/01/27 02:52:01;;;;;;;;;;;3.00;99.90;;;;;;5132538;27;20312;-67
2022/01/27 02:54:27;;;;;;;;;;;3.00;99.90;;;;;;5133070;27;19912;-68
2022/01/27 02:56:53;;;;;;;;;;;3.00;99.90;;;;;;5128052;27;19916;-68
2022/01/27 02:59:20;;;;;;;;;;;3.00;99.90;;;;;;5130485;27;20002;-68
2022/01/27 03:01:47;;;;;;;;;;;3.00;99.90;;;;;;5131686;27;20003;-67
2022/01/27 03:04:13;;;;;;;;;;;3.00;99.90;;;;;;5125866;27;19919;-70
2022/01/27 03:06:39;;;;;;;;;;;3.00;99.90;;;;;;5132018;27;20461;-68
2022/01/27 03:09:04;;;;;;;;;;;3.00;99.90;;;;;;5126866;27;19912;-69
2022/01/27 03:11:33;;;;;;;;;;;3.00;99.90;;;;;;5127659;27;19958;-68
2022/01/27 03:13:59;;;;;;;;;;;3.00;99.90;;;;;;5127555;27;19908;-68
2022/01/27 03:16:24;;;;;;;;;;;3.00;99.90;;;;;;5129137;27;20404;-68
2022/01/27 03:18:50;;;;;;;;;;;3.10;99.90;;;;;;5127340;27;19911;-68
2022/01/27 03:21:16;;;;;;;;;;;3.00;99.90;;;;;;5127823;27;19923;-68
2022/01/27 03:23:41;;;;;;;;;;;3.00;99.90;;;;;;5124746;27;19954;-68
2022/01/27 03:26:07;;;;;;;;;;;3.00;99.90;;;;;;5130867;27;19911;-67
2022/01/27 03:28:32;;;;;;;;;;;3.00;99.90;;;;;;5124038;27;19911;-66
2022/01/27 03:30:58;;;;;;;;;;;3.00;99.90;;;;;;5132330;27;20464;-68
2022/01/27 03:33:24;;;;;;;;;;;3.00;99.90;;;;;;5117953;27;19912;-68
2022/01/27 03:35:49;;;;;;;;;;;3.00;99.90;;;;;;5130845;27;19920;-71
2022/01/27 03:38:15;;;;;;;;;;;3.00;99.90;;;;;;5132270;27;20351;-68
2022/01/27 03:40:41;;;;;;;;;;;3.00;99.90;;;;;;5129622;27;19912;-67
2022/01/27 03:43:09;;;;;;;;;;;2.90;99.90;;;;;;5129286;27;19923;-68
2022/01/27 03:45:34;;;;;;;;;;;2.90;99.90;;;;;;5130794;27;19961;-68
2022/01/27 03:48:00;;;;;;;;;;;2.90;99.90;;;;;;5122757;27;19958;-69
2022/01/27 03:50:26;;;;;;;;;;;2.80;99.90;;;;;;5123632;27;20356;-68
2022/01/27 03:52:52;;;;;;;;;;;2.90;99.90;;;;;;5130077;27;20361;-68
2022/01/27 03:55:17;;;;;;;;;;;2.80;99.90;;;;;;5131843;27;19908;-66
2022/01/27 03:57:43;;;;;;;;;;;2.90;99.90;;;;;;5124437;27;19923;-69
2022/01/27 04:00:09;;;;;;;;;;;3.00;99.90;;;;;;5130632;27;20381;-69
2022/01/27 04:02:38;;;;;;;;;;;3.00;99.90;;;;;;5130382;27;19914;-68
2022/01/27 04:05:04;;;;;;;;;;;3.00;99.90;;;;;;5128690;27;19922;-68
2022/01/27 04:07:29;;;;;;;;;;;2.90;99.90;;;;;;5131710;27;19912;-69
2022/01/27 04:09:55;;;;;;;;;;;2.90;99.90;;;;;;5129689;27;19908;-65
2022/01/27 04:12:20;;;;;;;;;;;2.90;99.90;;;;;;5125397;27;19923;-67
2022/01/27 04:14:46;;;;;;;;;;;2.90;99.90;;;;;;5127343;27;19912;-68
2022/01/27 04:17:11;;;;;;;;;;;2.90;99.90;;;;;;5129284;27;19919;-67
2022/01/27 04:19:37;;;;;;;;;;;2.90;99.90;;;;;;5129505;27;19907;-68
2022/01/27 04:22:03;;;;;;;;;;;2.90;99.90;;;;;;5130081;27;19911;-67
2022/01/27 04:24:29;;;;;;;;;;;3.00;99.90;;;;;;5130523;27;20342;-68
2022/01/27 04:27:03;;;;;;;;;;;3.00;99.90;;;;;;5126653;27;20006;-68
2022/01/27 04:29:32;;;;;;;;;;;3.00;99.90;;;;;;5122977;27;20030;-68
2022/01/27 04:31:59;;;;;;;;;;;3.00;99.90;;;;;;5125920;27;19927;-67
2022/01/27 04:34:25;;;;;;;;;;;3.00;99.90;;;;;;5131240;27;19914;-68
2022/01/27 04:36:53;;;;;;;;;;;3.00;99.90;;;;;;5126803;27;19911;-67
2022/01/27 04:39:32;;;;;;;;;;;2.90;99.90;;;;;;5131040;27;19916;-67
2022/01/27 04:42:05;;;;;;;;;;;3.00;99.90;;;;;;5124088;27;20303;-67
2022/01/27 04:44:38;;;;;;;;;;;2.90;99.90;;;;;;5123663;28;20303;-68
2022/01/27 04:47:20;;;;;;;;;;;2.90;99.90;;;;;;5122436;28;19915;-67
2022/01/27 04:49:46;;;;;;;;;;;2.90;99.90;;;;;;5130947;28;19911;-69
2022/01/27 04:52:12;;;;;;;;;;;2.80;99.90;;;;;;5128064;28;20011;-68
2022/01/27 04:54:51;;;;;;;;;;;2.80;99.90;;;;;;5131559;28;19912;-67
2022/01/27 04:57:17;;;;;;;;;;;2.70;99.90;;;;;;5130357;28;19922;-67
2022/01/27 04:59:44;;;;;;;;;;;2.70;99.90;;;;;;5130807;28;19912;-65
2022/01/27 05:02:18;;;;;;;;;;;2.80;99.90;;;;;;5130108;28;20274;-68
2022/01/27 05:04:48;;;;;;;;;;;2.80;99.90;;;;;;5131082;28;20424;-68
2022/01/27 05:07:14;;;;;;;;;;;2.80;99.90;;;;;;5124093;28;19912;-68
2022/01/27 05:09:49;;;;;;;;;;;2.80;99.90;;;;;;5131200;28;19942;-67
2022/01/27 05:12:24;;;;;;;;;;;2.80;99.90;;;;;;5123568;28;20114;-68
2022/01/27 05:14:51;;;;;;;;;;;2.80;99.90;;;;;;5131903;28;19915;-68
2022/01/27 05:17:18;;;;;;;;;;;2.80;99.90;;;;;;5123959;27;19920;-67
2022/01/27 05:19:47;;;;;;;;;;;2.80;99.90;;;;;;5131929;28;19967;-68
2022/01/27 05:22:13;;;;;;;;;;;2.80;99.90;;;;;;5130668;28;19928;-68
2022/01/27 05:24:39;;;;;;;;;;;2.80;99.90;;;;;;5129556;28;19907;-68
2022/01/27 05:27:04;;;;;;;;;;;2.90;99.90;;;;;;5122269;28;19918;-66
2022/01/27 05:29:30;;;;;;;;;;;2.90;99.90;;;;;;5128512;28;19928;-68
2022/01/27 05:31:55;;;;;;;;;;;2.80;99.90;;;;;;5128920;27;19908;-68
2022/01/27 05:34:21;;;;;;;;;;;2.80;99.90;;;;;;5124470;28;19994;-68
2022/01/27 05:36:46;;;;;;;;;;;2.80;99.90;;;;;;5129847;27;20369;-66
2022/01/27 05:39:12;;;;;;;;;;;2.80;99.90;;;;;;5129685;28;19947;-68
2022/01/27 05:41:38;;;;;;;;;;;2.80;99.90;;;;;;5127592;28;19912;-69
2022/01/27 05:44:04;;;;;;;;;;;2.80;99.90;;;;;;5120416;28;19925;-69
2022/01/27 05:46:30;;;;;;;;;;;2.80;99.90;;;;;;5131210;28;19907;-69
2022/01/27 05:48:56;;;;;;;;;;;2.80;99.90;;;;;;5130570;27;19915;-66
2022/01/27 05:51:21;;;;;;;;;;;2.80;99.90;;;;;;5132232;27;20285;-68
2022/01/27 05:53:47;;;;;;;;;;;2.70;99.90;;;;;;5135282;27;20402;-69
2022/01/27 05:56:13;;;;;;;;;;;2.80;99.90;;;;;;5127513;27;20228;-69
2022/01/27 05:58:39;;;;;;;;;;;2.70;99.90;;;;;;5133026;27;19911;-68
2022/01/27 06:01:04;;;;;;;;;;;2.70;99.90;;;;;;5132611;27;20006;-68
2022/01/27 06:03:30;;;;;;;;;;;2.70;99.90;;;;;;5133301;27;20373;-69
2022/01/27 06:05:55;;;;;;;;;;;2.60;99.90;;;;;;5132646;27;20292;-68
2022/01/27 06:08:21;;;;;;;;;;;2.60;99.90;;;;;;5126609;27;19965;-70
2022/01/27 06:10:47;;;;;;;;;;;2.60;99.90;;;;;;5134238;27;19907;-68
2022/01/27 06:13:14;;;;;;;;;;;2.50;99.90;;;;;;5131740;27;20476;-69
2022/01/27 06:15:40;;;;;;;;;;;2.50;99.90;;;;;;5134707;27;19907;-68
2022/01/27 06:18:05;;;;;;;;;;;2.60;99.90;;;;;;5131886;27;20399;-68
2022/01/27 06:20:32;;;;;;;;;;;2.50;99.90;;;;;;5131908;27;19911;-66
2022/01/27 06:22:58;;;;;;;;;;;2.50;99.90;;;;;;5131617;27;19951;-68
2022/01/27 06:25:24;;;;;;;;;;;2.50;99.90;;;;;;5134338;27;19957;-68
2022/01/27 06:27:50;;;;;;;;;;;2.50;99.90;;;;;;5126313;27;19911;-68
2022/01/27 06:30:15;;;;;;;;;;;2.50;99.90;;;;;;5134403;27;19907;-68
2022/01/27 06:32:41;;;;;;;;;;;2.40;99.90;;;;;;5133971;27;19963;-68
2022/01/27 06:35:07;;;;;;;;;;;2.40;99.90;;;;;;5134566;27;19915;-68
2022/01/27 06:37:33;;;;;;;;;;;2.40;99.90;;;;;;5132319;27;20345;-68
2022/01/27 06:39:59;;;;;;;;;;;2.40;99.90;;;;;;5135307;27;19914;-67
2022/01/27 06:42:25;;;;;;;;;;;2.40;99.90;;;;;;5121362;27;19911;-68
2022/01/27 06:44:50;;;;;;;;;;;2.30;99.90;;;;;;5112531;28;19958;-68
2022/01/27 06:47:16;;;;;;;;;;;2.40;99.90;;;;;;5118317;27;19912;-67
2022/01/27 06:49:42;;;;;;;;;;;2.40;99.90;;;;;;5134039;27;19912;-69
2022/01/27 06:52:07;;;;;;;;;;;2.40;99.90;;;;;;5126375;27;19912;-68
2022/01/27 06:54:33;;;;;;;;;;;2.40;99.90;;;;;;5133513;27;19998;-68
2022/01/27 06:56:59;;;;;;;;;;;2.50;99.90;;;;;;5124325;27;19966;-68
2022/01/27 06:59:25;;;;;;;;;;;2.40;99.90;;;;;;5132400;27;19956;-67
2022/01/27 07:01:50;;;;;;;;;;;2.50;99.90;;;;;;5125209;27;20389;-66
2022/01/27 07:04:16;;;;;;;;;;;2.50;99.90;;;;;;5133189;27;19930;-67
2022/01/27 07:06:42;;;;;;;;;;;2.50;99.90;;;;;;5132786;27;20078;-67
2022/01/27 07:09:07;;;;;;;;;;;2.60;99.90;;;;;;5131958;27;19911;-67
2022/01/27 07:11:33;;;;;;;;;;;2.70;99.90;;;;;;5131809;27;19972;-67
2022/01/27 07:13:58;;;;;;;;;;;3.00;99.90;;;;;;5129548;27;19913;-68
2022/01/27 07:16:24;;;;;;;;;;;3.20;99.90;;;;;;5128044;27;19915;-69
2022/01/27 07:18:52;;;;;;;;;;;3.20;99.90;;;;;;5131562;27;19907;-68
2022/01/27 07:21:18;;;;;;;;;;;3.30;99.90;;;;;;5139078;27;19958;-68
2022/01/27 07:23:43;;;;;;;;;;;3.30;99.90;;;;;;5142483;27;19915;-70
2022/01/27 07:26:09;;;;;;;;;;;3.40;99.90;;;;;;5139938;27;19908;-70
2022/01/27 07:28:35;;;;;;;;;;;3.70;99.90;;;;;;5135434;27;19923;-71
2022/01/27 07:31:02;;;;;;;;;;;3.70;99.90;;;;;;5134866;27;20377;-68
2022/01/27 07:33:27;;;;;;;;;;;3.60;99.90;;;;;;5134277;27;20273;-69
2022/01/27 07:35:53;;;;;;;;;;;3.60;99.90;;;;;;5126924;27;20016;-69
2022/01/27 07:38:18;;;;;;;;;;;3.60;99.90;;;;;;5136091;27;19919;-69
2022/01/27 07:40:44;;;;;;;;;;;3.70;99.90;;;;;;5128071;27;19911;-69
2022/01/27 07:43:10;;;;;;;;;;;3.70;99.90;;;;;;5127134;27;19983;-71
2022/01/27 07:45:36;;;;;;;;;;;3.80;99.90;;;;;;5135425;27;19915;-68
2022/01/27 07:48:02;;;;;;;;;;;3.80;99.90;;;;;;5136042;27;19915;-69
2022/01/27 07:50:30;;;;;;;;;;;3.70;99.90;;;;;;5137191;27;19994;-69
2022/01/27 07:52:55;;;;;;;;;;;3.80;99.90;;;;;;5132553;27;19911;-68
2022/01/27 07:55:21;;;;;;;;;;;3.70;99.90;;;;;;5134532;27;19919;-70
2022/01/27 07:57:47;;;;;;;;;;;3.80;99.90;;;;;;5138048;27;19990;-67
2022/01/27 08:00:13;;;;;;;;;;;4.00;99.90;;;;;;5132419;27;19915;-71
2022/01/27 08:02:38;;;;;;;;;;;4.20;99.90;;;;;;5136248;27;20262;-69
2022/01/27 08:05:04;;;;;;;;;;;4.60;99.90;;;;;;5134744;27;20023;-70
2022/01/27 08:07:30;;;;;;;;;;;4.80;99.90;;;;;;5127700;27;19946;-68
2022/01/27 08:09:55;;;;;;;;;;;4.80;99.90;;;;;;5134740;27;19911;-69
2022/01/27 08:12:21;;;;;;;;;;;4.70;99.90;;;;;;5128076;27;20014;-69
2022/01/27 08:14:46;;;;;;;;;;;4.90;99.90;;;;;;5132335;27;19907;-69
2022/01/27 08:17:13;;;;;;;;;;;4.90;99.90;;;;;;5128507;27;19919;-69
2022/01/27 08:19:39;;;;;;;;;;;5.10;99.90;;;;;;5133184;27;19918;-70
2022/01/27 08:22:05;;;;;;;;;;;5.20;99.90;;;;;;5126401;27;19911;-68
2022/01/27 08:24:30;;;;;;;;;;;5.30;99.90;;;;;;5133557;27;19999;-69
2022/01/27 08:27:02;;;;;;;;;;;5.30;99.90;;;;;;5117621;27;19961;-69
2022/01/27 08:29:34;;;;;;;;;;;5.40;99.90;;;;;;5133013;27;20002;-69
2022/01/27 08:32:02;;;;;;;;;;;5.60;99.90;;;;;;5124456;27;20399;-70
2022/01/27 08:34:41;;;;;;;;;;;5.80;99.90;;;;;;5124697;27;19951;-68
2022/01/27 08:37:09;;;;;;;;;;;5.70;99.90;;;;;;5124761;27;19915;-69
2022/01/27 08:39:34;;;;;;;;;;;5.60;99.90;;;;;;5124387;27;19911;-68
2022/01/27 08:42:00;;;;;;;;;;;5.60;99.90;;;;;;5132593;27;19911;-68
2022/01/27 08:44:26;;;;;;;;;;;5.70;99.90;;;;;;5132874;27;19911;-68
2022/01/27 08:46:52;;;;;;;;;;;5.70;99.90;;;;;;5129227;27;20006;-69
2022/01/27 08:49:20;;;;;;;;;;;5.80;99.90;;;;;;5132306;27;20349;-70
2022/01/27 08:51:45;;;;;;;;;;;5.90;99.90;;;;;;5133080;28;19918;-68
2022/01/27 08:54:11;;;;;;;;;;;6.00;99.90;;;;;;5131186;28;20353;-70
2022/01/27 08:56:37;;;;;;;;;;;6.30;99.90;;;;;;5122505;28;19926;-68
2022/01/27 08:59:02;;;;;;;;;;;6.40;99.90;;;;;;5132696;27;19911;-68
2022/01/27 09:01:28;;;;;;;;;;;6.30;99.90;;;;;;5122630;28;19968;-68
2022/01/27 09:03:54;;;;;;;;;;;6.30;99.90;;;;;;5131946;28;19911;-68
2022/01/27 09:06:20;;;;;;;;;;;6.30;99.90;;;;;;5126913;28;19916;-69
2022/01/27 09:08:45;;;;;;;;;;;6.30;99.90;;;;;;5130670;27;19911;-69
2022/01/27 09:11:11;;;;;;;;;;;6.50;99.90;;;;;;5130478;28;20003;-69
2022/01/27 09:13:38;;;;;;;;;;;6.70;99.90;;;;;;5132962;27;20253;-68
2022/01/27 09:16:04;;;;;;;;;;;6.80;99.90;;;;;;5128153;28;19915;-68
2022/01/27 09:18:30;;;;;;;;;;;6.90;99.90;;;;;;5130913;28;20381;-68
2022/01/27 09:20:58;;;;;;;;;;;7.10;99.90;;;;;;5140544;28;19911;-68
2022/01/27 09:23:24;;;;;;;;;;;7.30;99.90;;;;;;5151064;27;19926;-68
2022/01/27 09:25:54;;;;;;;;;;;7.50;99.90;;;;;;5143797;27;19915;-69
2022/01/27 09:28:20;;;;;;;;;;;7.60;99.90;;;;;;5136021;27;19911;-69
2022/01/27 09:30:46;;;;;;;;;;;7.80;99.90;;;;;;5135961;27;19937;-69
2022/01/27 09:33:13;;;;;;;;;;;7.90;99.90;;;;;;5134978;27;19919;-68
2022/01/27 09:35:38;;;;;;;;;;;8.00;99.90;;;;;;5130580;27;19911;-68
2022/01/27 09:38:04;;;;;;;;;;;8.00;99.90;;;;;;5141028;27;19911;-68
2022/01/27 09:40:30;;;;;;;;;;;8.00;99.90;;;;;;5140039;27;19912;-68
2022/01/27 09:42:56;;;;;;;;;;;8.20;99.90;;;;;;5130549;27;20457;-67
2022/01/27 09:45:22;;;;;;;;;;;8.20;99.90;;;;;;5131185;27;19915;-69
2022/01/27 09:47:55;;;;;;;;;;;8.30;99.90;;;;;;5130602;27;19939;-70
2022/01/27 09:50:36;;;;;;;;;;;8.30;99.90;;;;;;5132399;27;20002;-70
2022/01/27 09:53:01;;;;;;;;;;;8.30;99.90;;;;;;5135577;27;19908;-69
2022/01/27 09:55:27;;;;;;;;;;;8.50;99.90;;;;;;5129310;27;19918;-69
2022/01/27 09:57:54;;;;;;;;;;;8.40;99.90;;;;;;5135373;27;19915;-71
2022/01/27 10:00:21;;;;;;;;;;;8.40;99.90;;;;;;5130506;27;19911;-69
2022/01/27 10:03:02;;;;;;;;;;;8.50;99.90;;;;;;5134007;27;20369;-69
2022/01/27 10:05:27;;;;;;;;;;;8.60;99.90;;;;;;5134515;27;19916;-69
2022/01/27 10:07:59;;;;;;;;;;;8.70;99.90;;;;;;5128244;27;19957;-69
2022/01/27 10:10:26;;;;;;;;;;;8.70;99.90;;;;;;5133887;27;19908;-68
2022/01/27 10:12:54;;;;;;;;;;;8.80;99.90;;;;;;5134345;27;19923;-69
2022/01/27 10:15:21;;;;;;;;;;;8.80;99.90;;;;;;5132689;27;19963;-68
2022/01/27 10:18:05;;;;;;;;;;;8.80;99.90;;;;;;5135304;27;19919;-68
2022/01/27 10:20:31;;;;;;;;;;;8.80;99.90;;;;;;5133971;27;19988;-69
2022/01/27 10:23:15;;;;;;;;;;;8.80;99.90;;;;;;5129090;27;20392;-69
2022/01/27 10:25:49;;;;;;;;;;;8.80;99.90;;;;;;5127422;27;19915;-69
2022/01/27 10:28:39;;;;;;;;;;;8.80;99.90;;;;;;5133921;27;19911;-69
2022/01/27 10:31:07;;;;;;;;;;;8.90;99.90;;;;;;5132627;27;19911;-69
2022/01/27 10:33:44;;;;;;;;;;;9.10;99.90;;;;;;5134894;27;20011;-69
2022/01/27 10:36:24;;;;;;;;;;;9.20;99.90;;;;;;5132563;27;19908;-69
2022/01/27 10:38:51;;;;;;;;;;;9.10;99.90;;;;;;5147078;27;19908;-69
2022/01/27 10:41:16;;;;;;;;;;;9.10;99.90;;;;;;5132387;27;19994;-68
2022/01/27 10:43:43;;;;;;;;;;;9.00;99.90;;;;;;5134582;27;19947;-69
2022/01/27 10:48:46;;;;;;;;;;;8.80;99.90;;;;;;5136433;27;19914;-68
2022/01/27 10:51:23;;;;;;;;;;;8.80;99.90;;;;;;5127827;27;20438;-69
2022/01/27 10:54:05;;;;;;;;;;;8.90;99.90;;;;;;5124771;27;19911;-69
2022/01/27 10:56:39;;;;;;;;;;;8.80;99.90;;;;;;5135016;27;20400;-68
2022/01/27 10:59:09;;;;;;;;;;;8.70;99.90;;;;;;5132298;27;19915;-69
2022/01/27 11:01:39;;;;;;;;;;;8.70;99.90;;;;;;5125834;27;19918;-69
2022/01/27 11:04:06;;;;;;;;;;;8.70;99.90;;;;;;5134542;27;19915;-69
2022/01/27 11:06:33;;;;;;;;;;;8.80;99.90;;;;;;5128826;27;19911;-69
2022/01/27 11:09:04;;;;;;;;;;;8.80;99.90;;;;;;5128387;27;20385;-69
2022/01/27 11:11:29;;;;;;;;;;;8.70;99.90;;;;;;5133250;27;20345;-70
2022/01/27 11:13:58;;;;;;;;;;;8.60;99.90;;;;;;5127020;27;19912;-68
2022/01/27 11:16:26;;;;;;;;;;;8.70;99.90;;;;;;5128745;27;19925;-70
2022/01/27 11:18:56;;;;;;;;;;;8.80;99.90;;;;;;5129144;27;19915;-68
2022/01/27 11:21:33;;;;;;;;;;;8.60;99.90;;;;;;5133009;27;19908;-68
2022/01/27 11:24:05;;;;;;;;;;;8.40;99.90;;;;;;5134237;27;20326;-68
2022/01/27 11:26:31;;;;;;;;;;;8.50;99.90;;;;;;5133361;27;19920;-69
2022/01/27 11:28:57;;;;;;;;;;;8.50;99.90;;;;;;5132269;27;19915;-71
2022/01/27 11:31:28;;;;;;;;;;;8.40;99.90;;;;;;5125164;27;19960;-68
2022/01/27 11:33:58;;;;;;;;;;;8.40;99.90;;;;;;5126240;27;19961;-69
2022/01/27 11:36:24;;;;;;;;;;;8.40;99.90;;;;;;5127294;27;20386;-68
2022/01/27 11:38:50;;;;;;;;;;;8.20;99.90;;;;;;5128477;27;19912;-69
2022/01/27 11:41:36;;;;;;;;;;;8.20;99.90;;;;;;5132886;27;20004;-69
2022/01/27 11:44:21;;;;;;;;;;;8.10;99.90;;;;;;5130170;27;19912;-68
2022/01/27 11:47:13;;;;;;;;;;;8.10;99.90;;;;;;5130351;27;20030;-67
2022/01/27 11:52:31;;;;;;;;;;;8.10;99.90;;;;;;5130657;27;19919;-69
2022/01/27 11:54:58;;;;;;;;;;;8.00;99.90;;;;;;5130442;27;19908;-68
2022/01/27 11:57:42;;;;;;;;;;;8.00;99.90;;;;;;5124944;27;19922;-68
2022/01/27 12:00:09;;;;;;;;;;;7.90;99.90;;;;;;5131496;27;19920;-68
2022/01/27 12:02:53;;;;;;;;;;;7.80;99.90;;;;;;5134279;27;20440;-68
2022/01/27 12:05:19;;;;;;;;;;;7.80;99.90;;;;;;5128989;27;19916;-69
2022/01/27 12:08:03;;;;;;;;;;;7.80;99.90;;;;;;5134021;27;19991;-68
2022/01/27 12:10:38;;;;;;;;;;;7.70;99.90;;;;;;5130998;27;19993;-69
2022/01/27 12:16:11;;;;;;;;;;;7.70;99.90;;;;;;5122995;27;19912;-69
2022/01/27 12:18:37;;;;;;;;;;;7.70;99.90;;;;;;5133514;27;19911;-68
2022/01/27 12:21:21;;;;;;;;;;;7.60;99.90;;;;;;5125936;27;19915;-68
2022/01/27 12:24:05;;;;;;;;;;;7.50;99.90;;;;;;5133114;27;19911;-68
2022/01/27 12:26:49;;;;;;;;;;;7.60;99.90;;;;;;5123897;27;19918;-68
2022/01/27 12:29:22;;;;;;;;;;;7.70;99.90;;;;;;5131384;27;20387;-68
2022/01/27 12:31:49;;;;;;;;;;;7.60;99.90;;;;;;5131408;27;20030;-68
2022/01/27 12:34:14;;;;;;;;;;;7.70;99.90;;;;;;5132890;27;19911;-68
2022/01/27 12:36:52;;;;;;;;;;;7.80;99.90;;;;;;5127353;27;19915;-69
2022/01/27 12:39:21;;;;;;;;;;;7.80;99.90;;;;;;5132598;27;19911;-68
2022/01/27 12:41:48;;;;;;;;;;;7.60;99.90;;;;;;5131947;27;19908;-68
2022/01/27 12:44:13;;;;;;;;;;;7.60;99.90;;;;;;5124198;27;19919;-68
2022/01/27 12:46:59;;;;;;;;;;;7.70;99.90;;;;;;5132594;27;19912;-69
2022/01/27 12:50:09;;;;;;;;;;;7.80;99.90;;;;;;5122860;27;19937;-69
2022/01/27 12:52:42;;;;;;;;;;;7.80;99.90;;;;;;5121647;27;19995;-69
2022/01/27 12:55:31;;;;;;;;;;;7.80;99.90;;;;;;5130076;28;19908;-68
2022/01/27 12:57:58;;;;;;;;;;;7.90;99.90;;;;;;5122472;28;19934;-68
2022/01/27 13:00:24;;;;;;;;;;;7.80;99.90;;;;;;5131690;27;19997;-69
2022/01/27 13:02:50;;;;;;;;;;;7.80;99.90;;;;;;5135428;27;20019;-67
2022/01/27 13:05:15;;;;;;;;;;;7.80;99.90;;;;;;5136602;27;20414;-69
2022/01/27 13:07:46;;;;;;;;;;;7.80;99.90;;;;;;5128863;27;19911;-69
2022/01/27 13:10:15;;;;;;;;;;;7.80;99.90;;;;;;5134825;27;20513;-68
2022/01/27 13:12:51;;;;;;;;;;;8.00;99.90;;;;;;5135311;27;19911;-69
2022/01/27 13:15:17;;;;;;;;;;;8.00;99.90;;;;;;5135545;27;19911;-68
2022/01/27 13:20:13;;;;;;;;;;;7.90;99.90;;;;;;5136519;27;19990;-68
2022/01/27 13:22:50;;;;;;;;;;;7.80;99.90;;;;;;5135624;27;19912;-68
2022/01/27 13:25:18;;;;;;;;;;;7.80;99.90;;;;;;5137498;27;19907;-69
2022/01/27 13:27:44;;;;;;;;;;;7.80;99.90;;;;;;5135983;27;19955;-69
2022/01/27 13:30:11;;;;;;;;;;;7.70;99.90;;;;;;5135582;27;19998;-68
2022/01/27 13:32:37;;;;;;;;;;;7.70;99.90;;;;;;5134029;27;20441;-68
2022/01/27 13:35:03;;;;;;;;;;;7.70;99.90;;;;;;5135118;27;19927;-68
2022/01/27 13:37:30;;;;;;;;;;;7.80;99.90;;;;;;5123934;27;19919;-69
2022/01/27 13:42:22;;;;;;;;;;;7.70;99.90;;;;;;5136183;27;19968;-68
2022/01/27 13:44:52;;;;;;;;;;;7.70;99.90;;;;;;5126217;27;20278;-68
2022/01/27 13:47:22;;;;;;;;;;;7.80;99.90;;;;;;5128375;27;19916;-69
2022/01/27 13:49:48;;;;;;;;;;;7.80;99.90;;;;;;5133875;27;20357;-69
2022/01/27 13:52:15;;;;;;;;;;;7.80;99.90;;;;;;5134562;27;19940;-67
2022/01/27 13:54:44;;;;;;;;;;;7.80;99.90;;;;;;5135262;27;19960;-69
2022/01/27 13:57:14;;;;;;;;;;;7.90;99.90;;;;;;5118549;27;20226;-69
2022/01/27 14:00:02;;;;;;;;;;;7.90;99.90;;;;;;5135710;27;19915;-69
2022/01/27 14:02:28;;;;;;;;;;;8.00;99.90;;;;;;5135272;27;20048;-68
2022/01/27 14:04:55;;;;;;;;;;;8.00;99.90;;;;;;5133818;27;20006;-68
2022/01/27 14:07:34;;;;;;;;;;;8.10;99.90;;;;;;5130983;27;19968;-69
2022/01/27 14:10:17;;;;;;;;;;;8.00;99.90;;;;;;5134018;27;19914;-68
2022/01/27 14:12:49;;;;;;;;;;;8.00;99.90;;;;;;5131252;27;19915;-69
2022/01/27 14:15:35;;;;;;;;;;;7.90;99.90;;;;;;5134044;27;20505;-69
2022/01/27 14:18:03;;;;;;;;;;;7.80;99.90;;;;;;5131401;27;19916;-68
2022/01/27 14:20:29;;;;;;;;;;;7.90;99.90;;;;;;5135347;27;19915;-69
2022/01/27 14:23:24;;;;;;;;;;;7.80;99.90;;;;;;5129883;27;19911;-69
2022/01/27 14:25:59;;;;;;;;;;;7.80;99.90;;;;;;5120025;27;19957;-68
2022/01/27 14:28:24;;;;;;;;;;;7.80;99.90;;;;;;5127084;27;19919;-69
2022/01/27 14:30:50;;;;;;;;;;;7.80;99.90;;;;;;5137249;27;20056;-68
2022/01/27 14:33:16;;;;;;;;;;;7.70;99.90;;;;;;5142456;27;19913;-69
2022/01/27 14:35:42;;;;;;;;;;;7.70;99.90;;;;;;5133480;27;19923;-69
2022/01/27 14:38:08;;;;;;;;;;;7.70;99.90;;;;;;5126589;27;19916;-69
2022/01/27 14:40:34;;;;;;;;;;;7.80;99.90;;;;;;5142862;27;20172;-69
2022/01/27 14:43:01;;;;;;;;;;;7.80;99.90;;;;;;5150594;27;19986;-69
2022/01/27 14:45:27;;;;;;;;;;;7.80;99.90;;;;;;5152971;27;19932;-68
2022/01/27 14:47:59;;;;;;;;;;;7.80;99.90;;;;;;5143658;27;20262;-70
2022/01/27 14:50:25;;;;;;;;;;;7.70;99.90;;;;;;5143464;27;19919;-69
2022/01/27 14:52:52;;;;;;;;;;;7.60;99.90;;;;;;5142432;27;19899;-69
2022/01/27 14:55:17;;;;;;;;;;;7.70;99.90;;;;;;5146017;27;19911;-69
2022/01/27 14:57:43;;;;;;;;;;;7.70;99.90;;;;;;5156236;27;19899;-69
2022/01/27 15:00:11;;;;;;;;;;;7.70;99.90;;;;;;5155255;27;19948;-68
2022/01/27 15:02:37;;;;;;;;;;;7.70;99.90;;;;;;5155199;27;19926;-69
2022/01/27 15:05:06;;;;;;;;;;;7.70;99.90;;;;;;5145143;27;19944;-68
2022/01/27 15:07:32;;;;;;;;;;;7.60;99.90;;;;;;5143382;27;19933;-68
2022/01/27 15:09:57;;;;;;;;;;;7.60;99.90;;;;;;5151677;27;19963;-68
2022/01/27 15:12:23;;;;;;;;;;;7.70;99.90;;;;;;5149588;27;20371;-69
2022/01/27 15:20:17;;;;;;;;;;;7.60;99.90;;;;;;5131362;27;20386;-68
2022/01/27 15:22:43;;;;;;;;;;;7.50;99.90;;;;;;5128997;27;19911;-68
2022/01/27 15:25:11;;;;;;;;;;;7.50;99.90;;;;;;5131743;27;19915;-67
2022/01/27 15:27:37;;;;;;;;;;;7.50;99.90;;;;;;5120775;27;19935;-68
2022/01/27 15:30:06;;;;;;;;;;;7.50;99.90;;;;;;5111060;27;20361;-69
2022/01/27 15:32:31;;;;;;;;;;;7.50;99.90;;;;;;5127498;27;19979;-67
2022/01/27 15:34:58;;;;;;;;;;;7.50;99.90;;;;;;5123962;27;19911;-67